Terminal Aerodrome Forecast
Issued by NWS Cleveland, OH

Home | Current Version | Previous Version | Graphics & Text | Print | Product List | Glossary On
Versions: 1 2 3 4 5 6 7 8 9 10 11 12 13 14 15 16 17 18 19 20 21 22
000
FTUS41 KCLE 241700
TAFERI
TAF
KERI 241725Z 2418/2518 21018G25KT P6SM OVC200
     FM250000 22015G22KT 5SM -SN SCT025 OVC035
     FM250500 26015G22KT 2SM -SN SCT008 OVC018
     FM251300 28008KT P6SM OVC025
     FM251600 28008KT P6SM OVC050=

USA.gov is the U.S. government's official web portal to all federal, state and local government web resources and services.